sensor_id;sensor_type;location;lat;lon;timestamp;temperature;humidity
7472;DHT22;3777;48.722;8.110;2022-12-10T00:01:21;5.10;99.90
7472;DHT22;3777;48.722;8.110;2022-12-10T00:03:48;5.10;99.90
7472;DHT22;3777;48.722;8.110;2022-12-10T00:06:18;5.00;99.90
7472;DHT22;3777;48.722;8.110;2022-12-10T00:08:47;5.00;99.90
7472;DHT22;3777;48.722;8.110;2022-12-10T00:11:15;5.00;99.90
7472;DHT22;3777;48.722;8.110;2022-12-10T00:13:44;5.00;99.90
7472;DHT22;3777;48.722;8.110;2022-12-10T00:16:14;5.00;99.90
7472;DHT22;3777;48.722;8.110;2022-12-10T00:18:41;5.00;99.90
7472;DHT22;3777;48.722;8.110;2022-12-10T00:21:10;5.00;99.90
7472;DHT22;3777;48.722;8.110;2022-12-10T00:23:38;5.00;99.90
7472;DHT22;3777;48.722;8.110;2022-12-10T00:26:09;5.00;99.90
7472;DHT22;3777;48.722;8.110;2022-12-10T00:28:36;5.00;99.90
7472;DHT22;3777;48.722;8.110;2022-12-10T00:31:05;5.00;99.90
7472;DHT22;3777;48.722;8.110;2022-12-10T00:33:32;5.00;99.90
7472;DHT22;3777;48.722;8.110;2022-12-10T00:36:04;5.10;99.90
7472;DHT22;3777;48.722;8.110;2022-12-10T00:38:31;5.10;99.90
7472;DHT22;3777;48.722;8.110;2022-12-10T00:40:58;5.10;99.90
7472;DHT22;3777;48.722;8.110;2022-12-10T00:43:27;5.10;99.90
7472;DHT22;3777;48.722;8.110;2022-12-10T00:45:54;5.00;99.90
7472;DHT22;3777;48.722;8.110;2022-12-10T00:48:21;5.00;99.90
7472;DHT22;3777;48.722;8.110;2022-12-10T00:50:55;5.00;99.90
7472;DHT22;3777;48.722;8.110;2022-12-10T00:53:23;5.00;99.90
7472;DHT22;3777;48.722;8.110;2022-12-10T00:55:50;4.90;99.90
7472;DHT22;3777;48.722;8.110;2022-12-10T00:58:17;5.00;99.90
7472;DHT22;3777;48.722;8.110;2022-12-10T01:00:45;4.90;99.90
7472;DHT22;3777;48.722;8.110;2022-12-10T01:03:13;4.90;99.90
7472;DHT22;3777;48.722;8.110;2022-12-10T01:05:40;4.90;99.90
7472;DHT22;3777;48.722;8.110;2022-12-10T01:08:07;4.90;99.90
7472;DHT22;3777;48.722;8.110;2022-12-10T01:10:34;4.90;99.90
7472;DHT22;3777;48.722;8.110;2022-12-10T01:13:01;4.90;99.90
7472;DHT22;3777;48.722;8.110;2022-12-10T01:15:28;4.90;99.90
7472;DHT22;3777;48.722;8.110;2022-12-10T01:17:57;4.90;99.90
7472;DHT22;3777;48.722;8.110;2022-12-10T01:20:24;4.80;99.90
7472;DHT22;3777;48.722;8.110;2022-12-10T01:22:51;4.80;99.90
7472;DHT22;3777;48.722;8.110;2022-12-10T01:25:17;4.80;99.90
7472;DHT22;3777;48.722;8.110;2022-12-10T01:27:44;4.80;99.90
7472;DHT22;3777;48.722;8.110;2022-12-10T01:30:12;4.80;99.90
7472;DHT22;3777;48.722;8.110;2022-12-10T01:32:39;4.80;99.90
7472;DHT22;3777;48.722;8.110;2022-12-10T01:35:08;4.80;99.90
7472;DHT22;3777;48.722;8.110;2022-12-10T01:37:34;4.80;99.90
7472;DHT22;3777;48.722;8.110;2022-12-10T01:40:02;4.80;99.90
7472;DHT22;3777;48.722;8.110;2022-12-10T01:42:29;4.80;99.90
7472;DHT22;3777;48.722;8.110;2022-12-10T01:45:00;4.70;99.90
7472;DHT22;3777;48.722;8.110;2022-12-10T01:47:27;4.60;99.90
7472;DHT22;3777;48.722;8.110;2022-12-10T01:49:54;4.60;99.90
7472;DHT22;3777;48.722;8.110;2022-12-10T01:52:23;4.60;99.90
7472;DHT22;3777;48.722;8.110;2022-12-10T01:54:50;4.50;99.90
7472;DHT22;3777;48.722;8.110;2022-12-10T01:57:19;4.40;99.90
7472;DHT22;3777;48.722;8.110;2022-12-10T01:59:49;4.40;99.90
7472;DHT22;3777;48.722;8.110;2022-12-10T02:02:26;4.30;99.90
7472;DHT22;3777;48.722;8.110;2022-12-10T02:05:04;4.20;99.90
7472;DHT22;3777;48.722;8.110;2022-12-10T02:07:41;4.10;99.90
7472;DHT22;3777;48.722;8.110;2022-12-10T02:10:17;4.10;99.90
7472;DHT22;3777;48.722;8.110;2022-12-10T02:12:48;4.00;99.90
7472;DHT22;3777;48.722;8.110;2022-12-10T02:15:18;3.90;99.90
7472;DHT22;3777;48.722;8.110;2022-12-10T02:17:50;3.90;99.90
7472;DHT22;3777;48.722;8.110;2022-12-10T02:20:20;3.80;99.90
7472;DHT22;3777;48.722;8.110;2022-12-10T02:22:54;3.80;99.90
7472;DHT22;3777;48.722;8.110;2022-12-10T02:25:30;3.70;99.90
7472;DHT22;3777;48.722;8.110;2022-12-10T02:28:03;3.70;99.90
7472;DHT22;3777;48.722;8.110;2022-12-10T02:30:34;3.70;99.90
7472;DHT22;3777;48.722;8.110;2022-12-10T02:33:03;3.70;99.90
7472;DHT22;3777;48.722;8.110;2022-12-10T02:35:34;3.70;99.90
7472;DHT22;3777;48.722;8.110;2022-12-10T02:38:09;3.70;99.90
7472;DHT22;3777;48.722;8.110;2022-12-10T02:40:38;3.80;99.90
7472;DHT22;3777;48.722;8.110;2022-12-10T02:43:07;3.80;99.90
7472;DHT22;3777;48.722;8.110;2022-12-10T02:45:37;3.80;99.90
7472;DHT22;3777;48.722;8.110;2022-12-10T02:48:05;3.90;99.90
7472;DHT22;3777;48.722;8.110;2022-12-10T02:50:33;3.90;99.90
7472;DHT22;3777;48.722;8.110;2022-12-10T02:53:00;3.90;99.90
7472;DHT22;3777;48.722;8.110;2022-12-10T02:55:29;4.00;99.90
7472;DHT22;3777;48.722;8.110;2022-12-10T02:58:08;4.00;99.90
7472;DHT22;3777;48.722;8.110;2022-12-10T03:00:45;4.00;99.90
7472;DHT22;3777;48.722;8.110;2022-12-10T03:03:36;4.10;99.90
7472;DHT22;3777;48.722;8.110;2022-12-10T03:06:09;4.10;99.90
7472;DHT22;3777;48.722;8.110;2022-12-10T03:08:42;4.20;99.90
7472;DHT22;3777;48.722;8.110;2022-12-10T03:11:14;4.20;99.90
7472;DHT22;3777;48.722;8.110;2022-12-10T03:13:47;4.30;99.90
7472;DHT22;3777;48.722;8.110;2022-12-10T03:16:19;4.30;99.90
7472;DHT22;3777;48.722;8.110;2022-12-10T03:18:52;4.40;99.90
7472;DHT22;3777;48.722;8.110;2022-12-10T03:21:21;4.40;99.90
7472;DHT22;3777;48.722;8.110;2022-12-10T03:23:49;4.40;99.90
7472;DHT22;3777;48.722;8.110;2022-12-10T03:26:18;4.40;99.90
7472;DHT22;3777;48.722;8.110;2022-12-10T03:28:48;4.50;99.90
7472;DHT22;3777;48.722;8.110;2022-12-10T03:31:18;4.50;99.90
7472;DHT22;3777;48.722;8.110;2022-12-10T03:33:46;4.50;99.90
7472;DHT22;3777;48.722;8.110;2022-12-10T03:36:15;4.50;99.90
7472;DHT22;3777;48.722;8.110;2022-12-10T03:38:43;4.50;99.90
7472;DHT22;3777;48.722;8.110;2022-12-10T03:41:10;4.50;99.90
7472;DHT22;3777;48.722;8.110;2022-12-10T03:43:50;4.50;99.90
7472;DHT22;3777;48.722;8.110;2022-12-10T03:46:18;4.50;99.90
7472;DHT22;3777;48.722;8.110;2022-12-10T03:48:45;4.50;99.90
7472;DHT22;3777;48.722;8.110;2022-12-10T03:51:12;4.50;99.90
7472;DHT22;3777;48.722;8.110;2022-12-10T03:53:40;4.50;99.90
7472;DHT22;3777;48.722;8.110;2022-12-10T03:56:07;4.50;99.90
7472;DHT22;3777;48.722;8.110;2022-12-10T03:58:35;4.50;99.90
7472;DHT22;3777;48.722;8.110;2022-12-10T04:01:02;4.50;99.90
7472;DHT22;3777;48.722;8.110;2022-12-10T04:03:33;4.50;99.90
7472;DHT22;3777;48.722;8.110;2022-12-10T04:06:01;4.40;99.90
7472;DHT22;3777;48.722;8.110;2022-12-10T04:08:29;4.30;99.90
7472;DHT22;3777;48.722;8.110;2022-12-10T04:11:02;4.30;99.90
7472;DHT22;3777;48.722;8.110;2022-12-10T04:13:31;4.20;99.90
7472;DHT22;3777;48.722;8.110;2022-12-10T04:16:16;4.10;99.90
7472;DHT22;3777;48.722;8.110;2022-12-10T04:18:58;4.10;99.90
7472;DHT22;3777;48.722;8.110;2022-12-10T04:21:26;4.00;99.90
7472;DHT22;3777;48.722;8.110;2022-12-10T04:24:12;4.00;99.90
7472;DHT22;3777;48.722;8.110;2022-12-10T04:26:58;3.90;99.90
7472;DHT22;3777;48.722;8.110;2022-12-10T04:29:27;4.00;99.90
7472;DHT22;3777;48.722;8.110;2022-12-10T04:31:55;4.00;99.90
7472;DHT22;3777;48.722;8.110;2022-12-10T04:34:24;4.10;99.90
7472;DHT22;3777;48.722;8.110;2022-12-10T04:36:52;4.00;99.90
7472;DHT22;3777;48.722;8.110;2022-12-10T04:39:19;4.00;99.90
7472;DHT22;3777;48.722;8.110;2022-12-10T04:41:47;4.00;99.90
7472;DHT22;3777;48.722;8.110;2022-12-10T04:44:15;3.90;99.90
7472;DHT22;3777;48.722;8.110;2022-12-10T04:46:42;4.00;99.90
7472;DHT22;3777;48.722;8.110;2022-12-10T04:49:09;3.90;99.90
7472;DHT22;3777;48.722;8.110;2022-12-10T04:51:38;3.90;99.90
7472;DHT22;3777;48.722;8.110;2022-12-10T04:54:06;3.90;99.90
7472;DHT22;3777;48.722;8.110;2022-12-10T04:56:33;3.90;99.90
7472;DHT22;3777;48.722;8.110;2022-12-10T04:59:01;4.00;99.90
7472;DHT22;3777;48.722;8.110;2022-12-10T05:01:28;4.00;99.90
7472;DHT22;3777;48.722;8.110;2022-12-10T05:03:58;4.00;99.90
7472;DHT22;3777;48.722;8.110;2022-12-10T05:06:25;4.00;99.90
7472;DHT22;3777;48.722;8.110;2022-12-10T05:08:54;4.00;99.90
7472;DHT22;3777;48.722;8.110;2022-12-10T05:11:23;3.90;99.90
7472;DHT22;3777;48.722;8.110;2022-12-10T05:13:50;3.90;99.90
7472;DHT22;3777;48.722;8.110;2022-12-10T05:16:19;4.00;99.90
7472;DHT22;3777;48.722;8.110;2022-12-10T05:18:48;3.90;99.90
7472;DHT22;3777;48.722;8.110;2022-12-10T05:21:17;3.90;99.90
7472;DHT22;3777;48.722;8.110;2022-12-10T05:23:46;3.90;99.90
7472;DHT22;3777;48.722;8.110;2022-12-10T05:26:16;3.90;99.90
7472;DHT22;3777;48.722;8.110;2022-12-10T05:28:46;4.00;99.90
7472;DHT22;3777;48.722;8.110;2022-12-10T05:31:13;4.00;99.90
7472;DHT22;3777;48.722;8.110;2022-12-10T05:33:42;4.00;99.90
7472;DHT22;3777;48.722;8.110;2022-12-10T05:36:10;4.00;99.90
7472;DHT22;3777;48.722;8.110;2022-12-10T05:38:38;3.90;99.90
7472;DHT22;3777;48.722;8.110;2022-12-10T05:41:08;3.80;99.90
7472;DHT22;3777;48.722;8.110;2022-12-10T05:43:36;3.70;99.90
7472;DHT22;3777;48.722;8.110;2022-12-10T05:46:05;3.60;99.90
7472;DHT22;3777;48.722;8.110;2022-12-10T05:48:33;3.60;99.90
7472;DHT22;3777;48.722;8.110;2022-12-10T05:51:03;3.70;99.90
7472;DHT22;3777;48.722;8.110;2022-12-10T05:53:31;3.70;99.90
7472;DHT22;3777;48.722;8.110;2022-12-10T05:56:01;3.70;99.90
7472;DHT22;3777;48.722;8.110;2022-12-10T05:58:29;3.70;99.90
7472;DHT22;3777;48.722;8.110;2022-12-10T06:00:57;3.80;99.90
7472;DHT22;3777;48.722;8.110;2022-12-10T06:03:27;3.80;99.90
7472;DHT22;3777;48.722;8.110;2022-12-10T06:05:54;3.80;99.90
7472;DHT22;3777;48.722;8.110;2022-12-10T06:08:22;3.90;99.90
7472;DHT22;3777;48.722;8.110;2022-12-10T06:10:49;3.90;99.90
7472;DHT22;3777;48.722;8.110;2022-12-10T06:13:15;3.90;99.90
7472;DHT22;3777;48.722;8.110;2022-12-10T06:15:43;3.90;99.90
7472;DHT22;3777;48.722;8.110;2022-12-10T06:18:11;3.90;99.90
7472;DHT22;3777;48.722;8.110;2022-12-10T06:20:39;4.00;99.90
7472;DHT22;3777;48.722;8.110;2022-12-10T06:23:06;4.00;99.90
7472;DHT22;3777;48.722;8.110;2022-12-10T06:25:33;4.00;99.90
7472;DHT22;3777;48.722;8.110;2022-12-10T06:28:04;4.10;99.90
7472;DHT22;3777;48.722;8.110;2022-12-10T06:30:31;4.10;99.90
7472;DHT22;3777;48.722;8.110;2022-12-10T06:32:58;4.10;99.90
7472;DHT22;3777;48.722;8.110;2022-12-10T06:35:26;4.10;99.90
7472;DHT22;3777;48.722;8.110;2022-12-10T06:37:53;4.00;99.90
7472;DHT22;3777;48.722;8.110;2022-12-10T06:40:20;4.00;99.90
7472;DHT22;3777;48.722;8.110;2022-12-10T06:42:47;4.00;99.90
7472;DHT22;3777;48.722;8.110;2022-12-10T06:45:16;4.00;99.90
7472;DHT22;3777;48.722;8.110;2022-12-10T06:47:43;4.00;99.90
7472;DHT22;3777;48.722;8.110;2022-12-10T06:50:10;4.00;99.90
7472;DHT22;3777;48.722;8.110;2022-12-10T06:52:39;4.00;99.90
7472;DHT22;3777;48.722;8.110;2022-12-10T06:55:06;4.00;99.90
7472;DHT22;3777;48.722;8.110;2022-12-10T06:57:33;3.90;99.90
7472;DHT22;3777;48.722;8.110;2022-12-10T07:00:00;3.90;99.90
7472;DHT22;3777;48.722;8.110;2022-12-10T07:02:27;3.80;99.90
7472;DHT22;3777;48.722;8.110;2022-12-10T07:04:54;3.80;99.90
7472;DHT22;3777;48.722;8.110;2022-12-10T07:07:22;3.80;99.90
7472;DHT22;3777;48.722;8.110;2022-12-10T07:09:50;3.80;99.90
7472;DHT22;3777;48.722;8.110;2022-12-10T07:12:17;3.80;99.90
7472;DHT22;3777;48.722;8.110;2022-12-10T07:14:44;3.80;99.90
7472;DHT22;3777;48.722;8.110;2022-12-10T07:17:11;3.90;99.90
7472;DHT22;3777;48.722;8.110;2022-12-10T07:19:38;3.80;99.90
7472;DHT22;3777;48.722;8.110;2022-12-10T07:22:05;3.80;99.90
7472;DHT22;3777;48.722;8.110;2022-12-10T07:24:32;3.80;99.90
7472;DHT22;3777;48.722;8.110;2022-12-10T07:27:00;3.80;99.90
7472;DHT22;3777;48.722;8.110;2022-12-10T07:29:27;3.90;99.90
7472;DHT22;3777;48.722;8.110;2022-12-10T07:31:54;3.90;99.90
7472;DHT22;3777;48.722;8.110;2022-12-10T07:34:21;3.90;99.90
7472;DHT22;3777;48.722;8.110;2022-12-10T07:36:48;3.90;99.90
7472;DHT22;3777;48.722;8.110;2022-12-10T07:39:15;3.90;99.90
7472;DHT22;3777;48.722;8.110;2022-12-10T07:41:44;3.90;99.90
7472;DHT22;3777;48.722;8.110;2022-12-10T07:44:13;4.00;99.90
7472;DHT22;3777;48.722;8.110;2022-12-10T07:46:40;4.00;99.90
7472;DHT22;3777;48.722;8.110;2022-12-10T07:49:07;4.00;99.90
7472;DHT22;3777;48.722;8.110;2022-12-10T07:51:34;3.90;99.90
7472;DHT22;3777;48.722;8.110;2022-12-10T07:54:01;3.90;99.90
7472;DHT22;3777;48.722;8.110;2022-12-10T07:56:28;3.90;99.90
7472;DHT22;3777;48.722;8.110;2022-12-10T07:58:55;3.90;99.90
7472;DHT22;3777;48.722;8.110;2022-12-10T08:01:25;4.00;99.90
7472;DHT22;3777;48.722;8.110;2022-12-10T08:03:54;3.90;99.90
7472;DHT22;3777;48.722;8.110;2022-12-10T08:06:24;3.80;99.90
7472;DHT22;3777;48.722;8.110;2022-12-10T08:08:51;3.80;99.90
7472;DHT22;3777;48.722;8.110;2022-12-10T08:11:19;3.80;99.90
7472;DHT22;3777;48.722;8.110;2022-12-10T08:13:47;3.80;99.90
7472;DHT22;3777;48.722;8.110;2022-12-10T08:16:16;3.90;99.90
7472;DHT22;3777;48.722;8.110;2022-12-10T08:18:45;3.90;99.90
7472;DHT22;3777;48.722;8.110;2022-12-10T08:21:14;3.90;99.90
7472;DHT22;3777;48.722;8.110;2022-12-10T08:23:42;3.90;99.90
7472;DHT22;3777;48.722;8.110;2022-12-10T08:26:11;3.80;99.90
7472;DHT22;3777;48.722;8.110;2022-12-10T08:28:39;3.80;99.90
7472;DHT22;3777;48.722;8.110;2022-12-10T08:31:08;3.80;99.90
7472;DHT22;3777;48.722;8.110;2022-12-10T08:33:36;3.70;99.90
7472;DHT22;3777;48.722;8.110;2022-12-10T08:36:05;3.80;99.90
7472;DHT22;3777;48.722;8.110;2022-12-10T08:38:33;3.70;99.90
7472;DHT22;3777;48.722;8.110;2022-12-10T08:41:05;3.60;99.90
7472;DHT22;3777;48.722;8.110;2022-12-10T08:43:33;3.60;99.90
7472;DHT22;3777;48.722;8.110;2022-12-10T08:45:59;3.60;99.90
7472;DHT22;3777;48.722;8.110;2022-12-10T08:48:27;3.50;99.90
7472;DHT22;3777;48.722;8.110;2022-12-10T08:50:54;3.50;99.90
7472;DHT22;3777;48.722;8.110;2022-12-10T08:53:22;3.60;99.90
7472;DHT22;3777;48.722;8.110;2022-12-10T08:55:50;3.40;99.90
7472;DHT22;3777;48.722;8.110;2022-12-10T08:58:17;3.40;99.90
7472;DHT22;3777;48.722;8.110;2022-12-10T09:00:44;3.40;99.90
7472;DHT22;3777;48.722;8.110;2022-12-10T09:03:12;3.40;99.90
7472;DHT22;3777;48.722;8.110;2022-12-10T09:05:39;3.50;99.90
7472;DHT22;3777;48.722;8.110;2022-12-10T09:08:06;3.50;99.90
7472;DHT22;3777;48.722;8.110;2022-12-10T09:10:35;3.60;99.90
7472;DHT22;3777;48.722;8.110;2022-12-10T09:13:02;3.60;99.90
7472;DHT22;3777;48.722;8.110;2022-12-10T09:15:30;3.60;99.90
7472;DHT22;3777;48.722;8.110;2022-12-10T09:17:57;3.80;99.90
7472;DHT22;3777;48.722;8.110;2022-12-10T09:20:24;3.90;99.90
7472;DHT22;3777;48.722;8.110;2022-12-10T09:22:51;3.90;99.90
7472;DHT22;3777;48.722;8.110;2022-12-10T09:25:18;3.90;99.90
7472;DHT22;3777;48.722;8.110;2022-12-10T09:27:48;3.90;99.90
7472;DHT22;3777;48.722;8.110;2022-12-10T09:30:16;3.90;99.90
7472;DHT22;3777;48.722;8.110;2022-12-10T09:32:43;3.80;99.90
7472;DHT22;3777;48.722;8.110;2022-12-10T09:35:10;3.90;99.90
7472;DHT22;3777;48.722;8.110;2022-12-10T09:37:37;3.90;99.90
7472;DHT22;3777;48.722;8.110;2022-12-10T09:40:05;3.90;99.90
7472;DHT22;3777;48.722;8.110;2022-12-10T09:42:42;3.90;99.90
7472;DHT22;3777;48.722;8.110;2022-12-10T09:45:18;3.90;99.90
7472;DHT22;3777;48.722;8.110;2022-12-10T09:47:54;3.90;99.90
7472;DHT22;3777;48.722;8.110;2022-12-10T09:50:26;4.00;99.90
7472;DHT22;3777;48.722;8.110;2022-12-10T09:52:57;4.00;99.90
7472;DHT22;3777;48.722;8.110;2022-12-10T09:55:31;4.10;99.90
7472;DHT22;3777;48.722;8.110;2022-12-10T09:58:00;4.20;99.90
7472;DHT22;3777;48.722;8.110;2022-12-10T10:00:35;4.20;99.90
7472;DHT22;3777;48.722;8.110;2022-12-10T10:03:03;4.30;99.90
7472;DHT22;3777;48.722;8.110;2022-12-10T10:05:34;4.30;99.90
7472;DHT22;3777;48.722;8.110;2022-12-10T10:08:04;4.30;99.90
7472;DHT22;3777;48.722;8.110;2022-12-10T10:10:32;4.40;99.90
7472;DHT22;3777;48.722;8.110;2022-12-10T10:13:11;4.40;99.90
7472;DHT22;3777;48.722;8.110;2022-12-10T10:15:42;4.40;99.90
7472;DHT22;3777;48.722;8.110;2022-12-10T10:18:15;4.30;99.90
7472;DHT22;3777;48.722;8.110;2022-12-10T10:20:44;4.30;99.90
7472;DHT22;3777;48.722;8.110;2022-12-10T10:23:14;4.40;99.90
7472;DHT22;3777;48.722;8.110;2022-12-10T10:25:42;4.40;99.90
7472;DHT22;3777;48.722;8.110;2022-12-10T10:28:11;4.50;99.90
7472;DHT22;3777;48.722;8.110;2022-12-10T10:30:42;4.50;99.90
7472;DHT22;3777;48.722;8.110;2022-12-10T10:33:11;4.60;99.90
7472;DHT22;3777;48.722;8.110;2022-12-10T10:35:44;4.70;99.90
7472;DHT22;3777;48.722;8.110;2022-12-10T10:38:18;4.70;99.90
7472;DHT22;3777;48.722;8.110;2022-12-10T10:40:50;4.80;99.90
7472;DHT22;3777;48.722;8.110;2022-12-10T10:43:21;4.90;99.90
7472;DHT22;3777;48.722;8.110;2022-12-10T10:45:52;4.80;99.90
7472;DHT22;3777;48.722;8.110;2022-12-10T10:48:22;4.70;99.90
7472;DHT22;3777;48.722;8.110;2022-12-10T10:50:52;4.70;99.90
7472;DHT22;3777;48.722;8.110;2022-12-10T10:53:25;4.80;99.90
7472;DHT22;3777;48.722;8.110;2022-12-10T10:55:54;4.60;99.90
7472;DHT22;3777;48.722;8.110;2022-12-10T10:58:23;4.50;99.90
7472;DHT22;3777;48.722;8.110;2022-12-10T11:00:57;4.60;99.90
7472;DHT22;3777;48.722;8.110;2022-12-10T11:03:26;4.80;99.90
7472;DHT22;3777;48.722;8.110;2022-12-10T11:05:54;4.90;99.90
7472;DHT22;3777;48.722;8.110;2022-12-10T11:08:25;4.90;99.90
7472;DHT22;3777;48.722;8.110;2022-12-10T11:10:58;5.00;99.90
7472;DHT22;3777;48.722;8.110;2022-12-10T11:13:28;5.10;99.90
7472;DHT22;3777;48.722;8.110;2022-12-10T11:16:01;5.10;99.90
7472;DHT22;3777;48.722;8.110;2022-12-10T11:18:37;5.00;99.90
7472;DHT22;3777;48.722;8.110;2022-12-10T11:21:07;5.00;99.90
7472;DHT22;3777;48.722;8.110;2022-12-10T11:23:38;5.00;99.90
7472;DHT22;3777;48.722;8.110;2022-12-10T11:26:21;5.10;99.90
7472;DHT22;3777;48.722;8.110;2022-12-10T11:29:00;5.10;99.90
7472;DHT22;3777;48.722;8.110;2022-12-10T11:31:50;5.10;99.90
7472;DHT22;3777;48.722;8.110;2022-12-10T11:34:30;5.20;99.90
7472;DHT22;3777;48.722;8.110;2022-12-10T11:37:08;5.10;99.90
7472;DHT22;3777;48.722;8.110;2022-12-10T11:40:02;5.10;99.90
7472;DHT22;3777;48.722;8.110;2022-12-10T11:42:38;5.10;99.90
7472;DHT22;3777;48.722;8.110;2022-12-10T11:45:16;5.00;99.90
7472;DHT22;3777;48.722;8.110;2022-12-10T11:47:57;5.00;99.90
7472;DHT22;3777;48.722;8.110;2022-12-10T11:50:35;4.90;99.90
7472;DHT22;3777;48.722;8.110;2022-12-10T11:56:02;5.10;99.90
7472;DHT22;3777;48.722;8.110;2022-12-10T11:58:48;5.00;99.90
7472;DHT22;3777;48.722;8.110;2022-12-10T12:01:23;4.90;99.90
7472;DHT22;3777;48.722;8.110;2022-12-10T12:04:23;4.80;99.90
7472;DHT22;3777;48.722;8.110;2022-12-10T12:09:47;5.00;99.90
7472;DHT22;3777;48.722;8.110;2022-12-10T12:12:24;5.00;99.90
7472;DHT22;3777;48.722;8.110;2022-12-10T12:14:59;5.00;99.90
7472;DHT22;3777;48.722;8.110;2022-12-10T12:17:32;5.00;99.90
7472;DHT22;3777;48.722;8.110;2022-12-10T12:20:04;5.00;99.90
7472;DHT22;3777;48.722;8.110;2022-12-10T12:22:41;5.10;99.90
7472;DHT22;3777;48.722;8.110;2022-12-10T12:25:20;5.10;99.90
7472;DHT22;3777;48.722;8.110;2022-12-10T12:27:51;5.10;99.90
7472;DHT22;3777;48.722;8.110;2022-12-10T12:30:21;4.90;99.90
7472;DHT22;3777;48.722;8.110;2022-12-10T12:32:53;5.00;99.90
7472;DHT22;3777;48.722;8.110;2022-12-10T12:35:28;4.90;99.90
7472;DHT22;3777;48.722;8.110;2022-12-10T12:38:17;4.90;99.90
7472;DHT22;3777;48.722;8.110;2022-12-10T12:40:50;5.00;99.90
7472;DHT22;3777;48.722;8.110;2022-12-10T12:43:21;5.00;99.90
7472;DHT22;3777;48.722;8.110;2022-12-10T12:45:52;5.00;99.90
7472;DHT22;3777;48.722;8.110;2022-12-10T12:48:23;5.10;99.90
7472;DHT22;3777;48.722;8.110;2022-12-10T12:50:59;5.10;99.90
7472;DHT22;3777;48.722;8.110;2022-12-10T12:53:26;5.00;99.90
7472;DHT22;3777;48.722;8.110;2022-12-10T12:55:58;5.00;99.90
7472;DHT22;3777;48.722;8.110;2022-12-10T12:58:34;4.90;99.90
7472;DHT22;3777;48.722;8.110;2022-12-10T13:01:10;4.90;99.90
7472;DHT22;3777;48.722;8.110;2022-12-10T13:03:41;5.00;99.90
7472;DHT22;3777;48.722;8.110;2022-12-10T13:06:18;5.00;99.90
7472;DHT22;3777;48.722;8.110;2022-12-10T13:08:49;5.10;99.90
7472;DHT22;3777;48.722;8.110;2022-12-10T13:11:30;5.20;99.90
7472;DHT22;3777;48.722;8.110;2022-12-10T13:14:32;5.20;99.90
7472;DHT22;3777;48.722;8.110;2022-12-10T13:17:22;5.20;99.90
7472;DHT22;3777;48.722;8.110;2022-12-10T13:19:51;5.20;99.90
7472;DHT22;3777;48.722;8.110;2022-12-10T13:22:54;5.20;99.90
7472;DHT22;3777;48.722;8.110;2022-12-10T13:25:38;5.30;99.90
7472;DHT22;3777;48.722;8.110;2022-12-10T13:28:21;5.30;99.90
7472;DHT22;3777;48.722;8.110;2022-12-10T13:31:07;5.30;99.90
7472;DHT22;3777;48.722;8.110;2022-12-10T13:33:46;5.20;99.90
7472;DHT22;3777;48.722;8.110;2022-12-10T13:36:20;5.20;99.90
7472;DHT22;3777;48.722;8.110;2022-12-10T13:39:02;5.20;99.90
7472;DHT22;3777;48.722;8.110;2022-12-10T13:41:40;5.10;99.90
7472;DHT22;3777;48.722;8.110;2022-12-10T13:44:32;5.00;99.90
7472;DHT22;3777;48.722;8.110;2022-12-10T13:47:05;5.00;99.90
7472;DHT22;3777;48.722;8.110;2022-12-10T13:49:52;5.00;99.90
7472;DHT22;3777;48.722;8.110;2022-12-10T13:52:24;5.10;99.90
7472;DHT22;3777;48.722;8.110;2022-12-10T13:55:16;5.10;99.90
7472;DHT22;3777;48.722;8.110;2022-12-10T13:57:56;5.10;99.90
7472;DHT22;3777;48.722;8.110;2022-12-10T14:00:32;5.20;99.90
7472;DHT22;3777;48.722;8.110;2022-12-10T14:06:14;5.20;99.90
7472;DHT22;3777;48.722;8.110;2022-12-10T14:08:52;5.20;99.90
7472;DHT22;3777;48.722;8.110;2022-12-10T14:11:23;5.10;99.90
7472;DHT22;3777;48.722;8.110;2022-12-10T14:13:53;5.10;99.90
7472;DHT22;3777;48.722;8.110;2022-12-10T14:16:24;5.10;99.90
7472;DHT22;3777;48.722;8.110;2022-12-10T14:18:55;5.00;99.90
7472;DHT22;3777;48.722;8.110;2022-12-10T14:21:22;5.10;99.90
7472;DHT22;3777;48.722;8.110;2022-12-10T14:23:51;5.10;99.90
7472;DHT22;3777;48.722;8.110;2022-12-10T14:26:22;5.00;99.90
7472;DHT22;3777;48.722;8.110;2022-12-10T14:28:55;5.10;99.90
7472;DHT22;3777;48.722;8.110;2022-12-10T14:31:28;5.10;99.90
7472;DHT22;3777;48.722;8.110;2022-12-10T14:34:01;5.10;99.90
7472;DHT22;3777;48.722;8.110;2022-12-10T14:36:30;5.00;99.90
7472;DHT22;3777;48.722;8.110;2022-12-10T14:38:59;4.80;99.90
7472;DHT22;3777;48.722;8.110;2022-12-10T14:41:30;4.90;99.90
7472;DHT22;3777;48.722;8.110;2022-12-10T14:44:02;4.80;99.90
7472;DHT22;3777;48.722;8.110;2022-12-10T14:46:31;4.80;99.90
7472;DHT22;3777;48.722;8.110;2022-12-10T14:48:59;4.80;99.90
7472;DHT22;3777;48.722;8.110;2022-12-10T14:51:31;4.90;99.90
7472;DHT22;3777;48.722;8.110;2022-12-10T14:53:59;4.90;99.90
7472;DHT22;3777;48.722;8.110;2022-12-10T14:56:30;4.90;99.90
7472;DHT22;3777;48.722;8.110;2022-12-10T14:59:04;4.90;99.90
7472;DHT22;3777;48.722;8.110;2022-12-10T15:01:33;4.90;99.90
7472;DHT22;3777;48.722;8.110;2022-12-10T15:04:03;4.90;99.90
7472;DHT22;3777;48.722;8.110;2022-12-10T15:06:34;4.90;99.90
7472;DHT22;3777;48.722;8.110;2022-12-10T15:09:03;4.90;99.90
7472;DHT22;3777;48.722;8.110;2022-12-10T15:11:32;4.90;99.90
7472;DHT22;3777;48.722;8.110;2022-12-10T15:14:01;5.00;99.90
7472;DHT22;3777;48.722;8.110;2022-12-10T15:16:31;5.00;99.90
7472;DHT22;3777;48.722;8.110;2022-12-10T15:19:09;5.00;99.90
7472;DHT22;3777;48.722;8.110;2022-12-10T15:21:41;5.00;99.90
7472;DHT22;3777;48.722;8.110;2022-12-10T15:24:15;5.00;99.90
7472;DHT22;3777;48.722;8.110;2022-12-10T15:26:45;4.90;99.90
7472;DHT22;3777;48.722;8.110;2022-12-10T15:29:33;4.90;99.90
7472;DHT22;3777;48.722;8.110;2022-12-10T15:32:05;4.90;99.90
7472;DHT22;3777;48.722;8.110;2022-12-10T15:34:38;4.90;99.90
7472;DHT22;3777;48.722;8.110;2022-12-10T15:37:16;4.90;99.90
7472;DHT22;3777;48.722;8.110;2022-12-10T15:39:48;4.90;99.90
7472;DHT22;3777;48.722;8.110;2022-12-10T15:42:36;4.90;99.90
7472;DHT22;3777;48.722;8.110;2022-12-10T15:45:15;4.90;99.90
7472;DHT22;3777;48.722;8.110;2022-12-10T15:47:42;4.90;99.90
7472;DHT22;3777;48.722;8.110;2022-12-10T15:50:10;4.90;99.90
7472;DHT22;3777;48.722;8.110;2022-12-10T15:52:37;4.90;99.90
7472;DHT22;3777;48.722;8.110;2022-12-10T15:55:05;4.90;99.90
7472;DHT22;3777;48.722;8.110;2022-12-10T15:57:35;4.90;99.90
7472;DHT22;3777;48.722;8.110;2022-12-10T16:00:06;4.90;99.90
7472;DHT22;3777;48.722;8.110;2022-12-10T16:02:37;4.90;99.90
7472;DHT22;3777;48.722;8.110;2022-12-10T16:05:11;4.90;99.90
7472;DHT22;3777;48.722;8.110;2022-12-10T16:07:38;4.90;99.90
7472;DHT22;3777;48.722;8.110;2022-12-10T16:10:06;4.90;99.90
7472;DHT22;3777;48.722;8.110;2022-12-10T16:12:36;4.90;99.90
7472;DHT22;3777;48.722;8.110;2022-12-10T16:15:05;4.90;99.90
7472;DHT22;3777;48.722;8.110;2022-12-10T16:17:33;4.90;99.90
7472;DHT22;3777;48.722;8.110;2022-12-10T16:20:13;4.80;99.90
7472;DHT22;3777;48.722;8.110;2022-12-10T16:22:42;4.80;99.90
7472;DHT22;3777;48.722;8.110;2022-12-10T16:25:09;4.80;99.90
7472;DHT22;3777;48.722;8.110;2022-12-10T16:27:37;4.70;99.90
7472;DHT22;3777;48.722;8.110;2022-12-10T16:30:13;4.60;99.90
7472;DHT22;3777;48.722;8.110;2022-12-10T16:32:40;4.50;99.90
7472;DHT22;3777;48.722;8.110;2022-12-10T16:35:08;4.40;99.90
7472;DHT22;3777;48.722;8.110;2022-12-10T16:37:35;4.30;99.90
7472;DHT22;3777;48.722;8.110;2022-12-10T16:40:03;4.20;99.90
7472;DHT22;3777;48.722;8.110;2022-12-10T16:42:31;4.10;99.90
7472;DHT22;3777;48.722;8.110;2022-12-10T16:44:59;4.10;99.90
7472;DHT22;3777;48.722;8.110;2022-12-10T16:47:26;4.10;99.90
7472;DHT22;3777;48.722;8.110;2022-12-10T16:49:53;4.00;99.90